Time;durP1;ratioP1;P1;durP2;ratioP2;P2;SDS_P1;SDS_P2;PMS_P1;PMS_P2;Temp;Humidity;BMP_temperature;BMP_pressure;BME280_temperature;BME280_humidity;BME280_pressure;Samples;Min_cycle;Max_cycle;Signal;HPM_P1;HPM_P2
2023/02/13 06:47:43;;;;;;;;;;;;;;;;;;5015096;23;19926;-83
2023/02/13 06:50:09;;;;;;;;;;;;;;;;;;4964621;28;20373;-85
2023/02/13 06:52:35;;;;;;;;;;;;;;;;;;4956287;28;19926;-85
2023/02/13 06:55:00;;;;;;;;;;;;;;;;;;4956323;28;20367;-85
2023/02/13 06:57:25;;;;;;;;;;;;;;;;;;4954591;29;19926;-85
2023/02/13 06:59:51;;;;;;;;;;;;;;;;;;4956088;28;19922;-85
2023/02/13 07:02:16;;;;;;;;;;;;;;;;;;4954717;29;19972;-86
2023/02/13 07:04:41;;;;;;;;;;;;;;;;;;4956151;28;20008;-85
2023/02/13 07:07:07;;;;;;;;;;;;;;;;;;4956268;28;20017;-86
2023/02/13 11:22:14;;;;;;;;;;;;;;;;;;4983076;28;20001;-90
2023/02/13 11:24:51;;;;;;;;;;;;;;;;;;4975887;28;19933;-86
2023/02/13 11:27:25;;;;;;;;;;;;;;;;;;4974737;28;20372;-91
2023/02/13 11:29:54;;;;;;;;;;;;;;;;;;4975538;28;20014;-89
2023/02/13 11:32:27;;;;;;;;;;;;;;;;;;4975904;28;19926;-88
2023/02/13 11:34:55;;;;;;;;;;;;;;;;;;4976427;28;19918;-88
2023/02/13 11:37:25;;;;;;;;;;;;;;;;;;4975988;28;19918;-87
2023/02/13 11:39:52;;;;;;;;;;;;;;;;;;4975458;28;19981;-89
2023/02/13 11:42:27;;;;;;;;;;;;;;;;;;4974393;28;19925;-88
2023/02/13 11:44:54;;;;;;;;;;;;;;;;;;4975755;28;19918;-86
2023/02/13 11:47:30;;;;;;;;;;;;;;;;;;4975767;28;19926;-87
2023/02/13 11:49:56;;;;;;;;;;;;;;;;;;4975593;28;20008;-88
2023/02/13 11:52:23;;;;;;;;;;;;;;;;;;4975424;28;19964;-87
2023/02/13 11:54:54;;;;;;;;;;;;;;;;;;4975342;28;19918;-87
2023/02/13 11:57:21;;;;;;;;;;;;;;;;;;4974881;28;20396;-87
2023/02/13 11:59:48;;;;;;;;;;;;;;;;;;4975095;28;19990;-88
2023/02/13 12:02:22;;;;;;;;;;;;;;;;;;4975006;28;19915;-87
2023/02/13 12:04:49;;;;;;;;;;;;;;;;;;4975661;28;19918;-93
2023/02/13 12:07:31;;;;;;;;;;;;;;;;;;4975523;28;19915;-92
2023/02/13 12:10:16;;;;;;;;;;;;;;;;;;4975134;28;20001;-92
2023/02/13 12:12:42;;;;;;;;;;;;;;;;;;4975096;28;20119;-91
2023/02/13 12:15:19;;;;;;;;;;;;;;;;;;4975403;28;19918;-92
2023/02/13 12:17:46;;;;;;;;;;;;;;;;;;4976391;28;19925;-87
2023/02/13 12:20:15;;;;;;;;;;;;;;;;;;4978600;28;19918;-91
2023/02/13 12:22:40;;;;;;;;;;;;;;;;;;4978403;28;19926;-87
2023/02/13 12:25:32;;;;;;;;;;;;;;;;;;4976733;28;20017;-88
2023/02/13 12:28:10;;;;;;;;;;;;;;;;;;4977127;28;19956;-90
2023/02/13 12:30:35;;;;;;;;;;;;;;;;;;4977001;28;20296;-90
2023/02/13 12:33:19;;;;;;;;;;;;;;;;;;4978653;28;19918;-88
2023/02/13 12:35:50;;;;;;;;;;;;;;;;;;4978854;28;19931;-90
2023/02/13 12:38:36;;;;;;;;;;;;;;;;;;4978232;28;19922;-89
2023/02/13 12:41:13;;;;;;;;;;;;;;;;;;4970125;28;20428;-89
2023/02/13 12:43:58;;;;;;;;;;;;;;;;;;4977037;28;19976;-88
2023/02/13 12:46:29;;;;;;;;;;;;;;;;;;4977769;28;19918;-88
2023/02/13 12:49:04;;;;;;;;;;;;;;;;;;4977890;28;19922;-88
2023/02/13 12:51:47;;;;;;;;;;;;;;;;;;4977752;28;19922;-88
2023/02/13 12:54:22;;;;;;;;;;;;;;;;;;4977805;28;19957;-90
2023/02/13 12:56:56;;;;;;;;;;;;;;;;;;4976528;28;19919;-89
2023/02/13 12:59:24;;;;;;;;;;;;;;;;;;4977360;28;19918;-88
2023/02/13 13:01:58;;;;;;;;;;;;;;;;;;4976323;28;19922;-89
2023/02/13 13:04:46;;;;;;;;;;;;;;;;;;4976187;28;20369;-89
2023/02/13 13:07:12;;;;;;;;;;;;;;;;;;4976122;28;19918;-88
2023/02/13 13:09:43;;;;;;;;;;;;;;;;;;4978208;28;20460;-89
2023/02/13 13:12:27;;;;;;;;;;;;;;;;;;4977648;28;20013;-89
2023/02/13 13:15:10;;;;;;;;;;;;;;;;;;4976211;28;19923;-89
2023/02/13 13:17:54;;;;;;;;;;;;;;;;;;4976086;28;19974;-89
2023/02/13 13:20:30;;;;;;;;;;;;;;;;;;4977980;28;19921;-89
2023/02/13 13:22:59;;;;;;;;;;;;;;;;;;4977538;28;20013;-88
2023/02/13 13:25:31;;;;;;;;;;;;;;;;;;4977485;28;19918;-89
2023/02/13 13:28:00;;;;;;;;;;;;;;;;;;4975820;28;20004;-89
2023/02/13 13:30:30;;;;;;;;;;;;;;;;;;4976031;28;19918;-89
2023/02/13 13:32:59;;;;;;;;;;;;;;;;;;4977472;28;19918;-89
2023/02/13 13:35:25;;;;;;;;;;;;;;;;;;4976696;28;19968;-95
2023/02/13 13:38:01;;;;;;;;;;;;;;;;;;4977145;28;19958;-90
2023/02/13 13:40:26;;;;;;;;;;;;;;;;;;4976837;28;19919;-88
2023/02/13 13:42:52;;;;;;;;;;;;;;;;;;4975924;28;19914;-88
2023/02/13 13:45:29;;;;;;;;;;;;;;;;;;4976848;28;19925;-88
2023/02/13 13:48:12;;;;;;;;;;;;;;;;;;4976534;28;19926;-87
2023/02/13 13:50:39;;;;;;;;;;;;;;;;;;4976612;28;19949;-89
2023/02/13 13:53:07;;;;;;;;;;;;;;;;;;4976461;28;20387;-88
2023/02/13 13:56:04;;;;;;;;;;;;;;;;;;4976429;28;19919;-88
2023/02/13 13:58:37;;;;;;;;;;;;;;;;;;4976275;28;20077;-89
2023/02/13 14:01:21;;;;;;;;;;;;;;;;;;4975303;28;20354;-88
2023/02/13 14:03:48;;;;;;;;;;;;;;;;;;4974989;28;19918;-87
2023/02/13 14:06:14;;;;;;;;;;;;;;;;;;4976328;28;19941;-87
2023/02/13 14:08:40;;;;;;;;;;;;;;;;;;4975467;28;20020;-87
2023/02/13 14:11:25;;;;;;;;;;;;;;;;;;4976397;28;20425;-88
2023/02/13 14:13:51;;;;;;;;;;;;;;;;;;4975241;28;19918;-90
2023/02/13 14:16:35;;;;;;;;;;;;;;;;;;4986894;28;19925;-90
2023/02/13 14:19:00;;;;;;;;;;;;;;;;;;4976962;28;20302;-88
2023/02/13 14:21:25;;;;;;;;;;;;;;;;;;4975367;28;19926;-88
2023/02/13 14:23:56;;;;;;;;;;;;;;;;;;4978079;28;19922;-89
2023/02/13 14:26:30;;;;;;;;;;;;;;;;;;4976089;28;19918;-88
2023/02/13 14:28:57;;;;;;;;;;;;;;;;;;4975252;28;19918;-89
2023/02/13 14:31:22;;;;;;;;;;;;;;;;;;4974666;28;19925;-88
2023/02/13 14:34:05;;;;;;;;;;;;;;;;;;4976532;28;20440;-89
2023/02/13 14:36:41;;;;;;;;;;;;;;;;;;4975003;28;19918;-88
2023/02/13 14:39:28;;;;;;;;;;;;;;;;;;4976136;28;19918;-89
2023/02/13 14:42:01;;;;;;;;;;;;;;;;;;4976368;28;19918;-88
2023/02/13 14:44:26;;;;;;;;;;;;;;;;;;4976331;28;19922;-87
2023/02/13 14:46:53;;;;;;;;;;;;;;;;;;4974764;28;20419;-91
2023/02/13 14:49:18;;;;;;;;;;;;;;;;;;4976183;28;20383;-89
2023/02/13 14:51:51;;;;;;;;;;;;;;;;;;4975712;28;19918;-88
2023/02/13 14:54:28;;;;;;;;;;;;;;;;;;4976361;28;19925;-88
2023/02/13 14:57:02;;;;;;;;;;;;;;;;;;4976114;28;20017;-88
2023/02/13 14:59:31;;;;;;;;;;;;;;;;;;4976374;28;19926;-88
2023/02/13 15:02:01;;;;;;;;;;;;;;;;;;4976316;28;19918;-88
2023/02/13 15:04:30;;;;;;;;;;;;;;;;;;4974743;28;19918;-88
2023/02/13 15:06:56;;;;;;;;;;;;;;;;;;4974479;28;19918;-89
2023/02/13 15:09:34;;;;;;;;;;;;;;;;;;4974439;28;19918;-89
2023/02/13 15:11:59;;;;;;;;;;;;;;;;;;4974625;28;19918;-86
2023/02/13 15:14:34;;;;;;;;;;;;;;;;;;4975786;28;19919;-88
2023/02/13 15:17:02;;;;;;;;;;;;;;;;;;4975415;28;20407;-88
2023/02/13 15:19:28;;;;;;;;;;;;;;;;;;4974246;28;19926;-87
2023/02/13 15:21:58;;;;;;;;;;;;;;;;;;4975049;28;19926;-87
2023/02/13 15:24:24;;;;;;;;;;;;;;;;;;4975654;28;19919;-86
2023/02/13 15:26:52;;;;;;;;;;;;;;;;;;4975432;28;19925;-88
2023/02/13 15:29:18;;;;;;;;;;;;;;;;;;4974007;28;19918;-88
2023/02/13 15:31:44;;;;;;;;;;;;;;;;;;4974502;28;20477;-90
2023/02/13 15:34:24;;;;;;;;;;;;;;;;;;4975653;28;19923;-93
2023/02/13 15:36:49;;;;;;;;;;;;;;;;;;4975860;28;19918;-95
2023/02/13 15:39:17;;;;;;;;;;;;;;;;;;4975882;28;19918;-94
2023/02/13 15:41:45;;;;;;;;;;;;;;;;;;4976351;28;19922;-95
2023/02/13 15:44:18;;;;;;;;;;;;;;;;;;4975529;28;19918;-94
2023/02/13 15:46:46;;;;;;;;;;;;;;;;;;4975871;28;19918;-96
2023/02/13 15:49:14;;;;;;;;;;;;;;;;;;4976601;28;19918;-95
2023/02/13 15:51:39;;;;;;;;;;;;;;;;;;4977173;28;19922;-95
2023/02/13 15:54:06;;;;;;;;;;;;;;;;;;4983264;28;20289;-96
2023/02/13 15:56:32;;;;;;;;;;;;;;;;;;4982764;28;19918;-94
2023/02/13 15:58:58;;;;;;;;;;;;;;;;;;4983074;28;20431;-96
2023/02/13 16:01:24;;;;;;;;;;;;;;;;;;4985393;28;20017;-96
2023/02/13 16:03:52;;;;;;;;;;;;;;;;;;4991926;28;20506;-96
2023/02/13 16:06:18;;;;;;;;;;;;;;;;;;4991527;28;19929;-93
2023/02/13 16:08:49;;;;;;;;;;;;;;;;;;4987524;28;19925;-95
2023/02/13 16:11:15;;;;;;;;;;;;;;;;;;4981442;28;19939;-94
2023/02/13 16:13:48;;;;;;;;;;;;;;;;;;4984806;28;20352;-96
2023/02/13 16:16:13;;;;;;;;;;;;;;;;;;4995437;28;20005;-91
2023/02/13 16:18:39;;;;;;;;;;;;;;;;;;4993472;28;19925;-96
2023/02/13 16:21:05;;;;;;;;;;;;;;;;;;4994121;28;19925;-96
2023/02/13 16:23:31;;;;;;;;;;;;;;;;;;4982760;28;19922;-94
2023/02/13 16:26:00;;;;;;;;;;;;;;;;;;4980874;28;20009;-94
2023/02/13 16:28:27;;;;;;;;;;;;;;;;;;4978818;28;20293;-90
2023/02/13 16:30:53;;;;;;;;;;;;;;;;;;4979009;28;19966;-89
2023/02/13 16:33:25;;;;;;;;;;;;;;;;;;4978026;28;19918;-89
2023/02/13 16:35:53;;;;;;;;;;;;;;;;;;4977318;28;19924;-89
2023/02/13 16:38:23;;;;;;;;;;;;;;;;;;4976636;28;19935;-89
2023/02/13 16:40:49;;;;;;;;;;;;;;;;;;4977055;28;19918;-87
2023/02/13 16:43:32;;;;;;;;;;;;;;;;;;4976369;28;20012;-87
2023/02/13 16:46:19;;;;;;;;;;;;;;;;;;4977734;28;19925;-87
2023/02/13 16:48:59;;;;;;;;;;;;;;;;;;4977765;28;19918;-87
2023/02/13 16:51:31;;;;;;;;;;;;;;;;;;4976466;28;19935;-87
2023/02/13 16:54:01;;;;;;;;;;;;;;;;;;4977480;28;20316;-87
2023/02/13 16:56:27;;;;;;;;;;;;;;;;;;4976114;28;19918;-87
2023/02/13 16:59:24;;;;;;;;;;;;;;;;;;4977460;28;19918;-87
2023/02/13 17:02:08;;;;;;;;;;;;;;;;;;4966288;28;20017;-87
2023/02/13 17:04:35;;;;;;;;;;;;;;;;;;4977524;28;20341;-87
2023/02/13 17:07:00;;;;;;;;;;;;;;;;;;4976627;28;19922;-90
2023/02/13 17:09:26;;;;;;;;;;;;;;;;;;4975934;28;19925;-86
2023/02/13 17:11:51;;;;;;;;;;;;;;;;;;4978024;28;19918;-89
2023/02/13 17:14:19;;;;;;;;;;;;;;;;;;4976207;28;19918;-89
2023/02/13 17:16:45;;;;;;;;;;;;;;;;;;4977205;28;19972;-90
2023/02/13 17:19:10;;;;;;;;;;;;;;;;;;4976245;28;20016;-89
2023/02/13 17:21:36;;;;;;;;;;;;;;;;;;4978141;28;19926;-89
2023/02/13 20:57:48;;;;;;;;;;;;;;;;;;5762858;23;20025;-89
2023/02/13 21:00:19;;;;;;;;;;;;;;;;;;4966157;28;19973;-88
2023/02/13 21:02:45;;;;;;;;;;;;;;;;;;4973520;28;20333;-92
2023/02/13 21:05:13;;;;;;;;;;;;;;;;;;4958876;28;19989;-93
2023/02/13 21:07:39;;;;;;;;;;;;;;;;;;4966373;28;19961;-91
2023/02/13 21:10:07;;;;;;;;;;;;;;;;;;4977951;28;20308;-88
2023/02/13 21:12:33;;;;;;;;;;;;;;;;;;4977927;28;19915;-86
2023/02/13 21:14:59;;;;;;;;;;;;;;;;;;4976998;28;19918;-91
2023/02/13 21:17:27;;;;;;;;;;;;;;;;;;4959610;28;20269;-88
2023/02/13 21:19:52;;;;;;;;;;;;;;;;;;4957794;29;19925;-84
2023/02/13 21:22:17;;;;;;;;;;;;;;;;;;4957865;29;19918;-87
2023/02/13 21:24:43;;;;;;;;;;;;;;;;;;4957854;29;19925;-87
2023/02/13 21:27:16;;;;;;;;;;;;;;;;;;4957175;28;20383;-86
2023/02/13 21:29:42;;;;;;;;;;;;;;;;;;4957540;29;20096;-88
2023/02/13 21:32:07;;;;;;;;;;;;;;;;;;4956376;28;19957;-87
2023/02/13 21:34:33;;;;;;;;;;;;;;;;;;4974317;28;19926;-87
2023/02/13 21:36:58;;;;;;;;;;;;;;;;;;4976627;28;19930;-88
2023/02/13 21:39:23;;;;;;;;;;;;;;;;;;4976827;28;19918;-86
2023/02/13 21:41:49;;;;;;;;;;;;;;;;;;4975698;28;19925;-86
2023/02/13 21:44:15;;;;;;;;;;;;;;;;;;4975666;28;19918;-87
2023/02/13 21:46:41;;;;;;;;;;;;;;;;;;4975367;28;19925;-87
2023/02/13 21:49:10;;;;;;;;;;;;;;;;;;4975326;28;20009;-86
2023/02/13 21:51:36;;;;;;;;;;;;;;;;;;4974277;28;19976;-88
2023/02/13 21:54:02;;;;;;;;;;;;;;;;;;4976627;28;20384;-86
2023/02/13 21:56:29;;;;;;;;;;;;;;;;;;4976690;28;20344;-86
2023/02/13 21:58:57;;;;;;;;;;;;;;;;;;4976109;28;19922;-86
2023/02/13 22:01:32;;;;;;;;;;;;;;;;;;4976359;28;19976;-88
2023/02/13 22:03:59;;;;;;;;;;;;;;;;;;4976339;28;20057;-87
2023/02/13 22:06:25;;;;;;;;;;;;;;;;;;4976324;28;20324;-87
2023/02/13 22:08:57;;;;;;;;;;;;;;;;;;4976300;28;19918;-87
2023/02/13 22:11:23;;;;;;;;;;;;;;;;;;4976216;28;19918;-87
2023/02/13 22:13:48;;;;;;;;;;;;;;;;;;4976540;28;20009;-87
2023/02/13 22:16:14;;;;;;;;;;;;;;;;;;4976331;28;20009;-87
2023/02/13 22:18:41;;;;;;;;;;;;;;;;;;4976082;28;19918;-88
2023/02/13 22:21:08;;;;;;;;;;;;;;;;;;4976065;28;19918;-87
2023/02/13 22:23:35;;;;;;;;;;;;;;;;;;4974674;28;19914;-85
2023/02/13 22:26:01;;;;;;;;;;;;;;;;;;4976257;28;20379;-86
2023/02/13 22:28:26;;;;;;;;;;;;;;;;;;4974578;28;19953;-86
2023/02/13 22:30:51;;;;;;;;;;;;;;;;;;4975805;28;20387;-86
2023/02/13 22:33:16;;;;;;;;;;;;;;;;;;4975876;28;19930;-87
2023/02/13 22:35:42;;;;;;;;;;;;;;;;;;4975659;28;19914;-86
2023/02/13 22:38:07;;;;;;;;;;;;;;;;;;4975768;28;20390;-86
2023/02/13 22:40:33;;;;;;;;;;;;;;;;;;4975500;28;19922;-86
2023/02/13 22:42:58;;;;;;;;;;;;;;;;;;4975879;28;19914;-87
2023/02/13 22:45:24;;;;;;;;;;;;;;;;;;4975751;28;20281;-86
2023/02/13 22:47:51;;;;;;;;;;;;;;;;;;4974243;28;19914;-86
2023/02/13 22:50:17;;;;;;;;;;;;;;;;;;4975707;28;19922;-85
2023/02/13 22:52:42;;;;;;;;;;;;;;;;;;4974475;28;19941;-87
2023/02/13 22:55:08;;;;;;;;;;;;;;;;;;4975422;28;19914;-85
2023/02/13 22:57:33;;;;;;;;;;;;;;;;;;4974015;28;19964;-84
2023/02/13 22:59:58;;;;;;;;;;;;;;;;;;4975587;28;20315;-88
2023/02/13 23:02:23;;;;;;;;;;;;;;;;;;4975469;28;20329;-89
2023/02/13 23:04:49;;;;;;;;;;;;;;;;;;4975800;28;19922;-85
2023/02/13 23:07:17;;;;;;;;;;;;;;;;;;4975255;28;19922;-85
2023/02/13 23:09:43;;;;;;;;;;;;;;;;;;4975366;28;20405;-85
2023/02/13 23:14:54;;;;;;;;;;;;;;;;;;4975408;28;19964;-86
